sensor_id;sensor_type;location;lat;lon;timestamp;temperature;humidity
14144;DHT22;7152;48.348;10.980;2023-01-29T00:01:08;0.60;99.90
14144;DHT22;7152;48.348;10.980;2023-01-29T00:03:34;0.60;99.90
14144;DHT22;7152;48.348;10.980;2023-01-29T00:06:03;0.60;99.90
14144;DHT22;7152;48.348;10.980;2023-01-29T00:08:35;0.60;99.90
14144;DHT22;7152;48.348;10.980;2023-01-29T00:11:03;0.50;99.90
14144;DHT22;7152;48.348;10.980;2023-01-29T00:13:29;0.50;99.90
14144;DHT22;7152;48.348;10.980;2023-01-29T00:15:56;0.50;99.90
14144;DHT22;7152;48.348;10.980;2023-01-29T00:18:22;0.50;99.90
14144;DHT22;7152;48.348;10.980;2023-01-29T00:20:48;0.50;99.90
14144;DHT22;7152;48.348;10.980;2023-01-29T00:23:13;0.50;99.90
14144;DHT22;7152;48.348;10.980;2023-01-29T00:25:40;0.40;99.90
14144;DHT22;7152;48.348;10.980;2023-01-29T00:28:06;0.40;99.90
14144;DHT22;7152;48.348;10.980;2023-01-29T00:30:32;0.40;99.90
14144;DHT22;7152;48.348;10.980;2023-01-29T00:32:58;0.40;99.90
14144;DHT22;7152;48.348;10.980;2023-01-29T00:35:23;0.30;99.90
14144;DHT22;7152;48.348;10.980;2023-01-29T00:37:49;0.30;99.90
14144;DHT22;7152;48.348;10.980;2023-01-29T00:40:15;0.30;99.90
14144;DHT22;7152;48.348;10.980;2023-01-29T00:42:43;0.30;99.90
14144;DHT22;7152;48.348;10.980;2023-01-29T00:45:27;0.40;99.90
14144;DHT22;7152;48.348;10.980;2023-01-29T00:47:52;0.40;99.90
14144;DHT22;7152;48.348;10.980;2023-01-29T00:50:18;0.40;99.90
14144;DHT22;7152;48.348;10.980;2023-01-29T00:52:44;0.30;99.90
14144;DHT22;7152;48.348;10.980;2023-01-29T00:55:10;0.30;99.90
14144;DHT22;7152;48.348;10.980;2023-01-29T00:57:37;0.30;99.90
14144;DHT22;7152;48.348;10.980;2023-01-29T01:00:05;0.40;99.90
14144;DHT22;7152;48.348;10.980;2023-01-29T01:02:31;0.40;99.90
14144;DHT22;7152;48.348;10.980;2023-01-29T01:05:16;0.40;99.90
14144;DHT22;7152;48.348;10.980;2023-01-29T01:07:51;0.30;99.90
14144;DHT22;7152;48.348;10.980;2023-01-29T01:10:29;0.30;99.90
14144;DHT22;7152;48.348;10.980;2023-01-29T01:13:00;0.30;99.90
14144;DHT22;7152;48.348;10.980;2023-01-29T01:15:32;0.40;99.90
14144;DHT22;7152;48.348;10.980;2023-01-29T01:17:59;0.40;99.90
14144;DHT22;7152;48.348;10.980;2023-01-29T01:20:27;0.40;99.90
14144;DHT22;7152;48.348;10.980;2023-01-29T01:22:53;0.40;99.90
14144;DHT22;7152;48.348;10.980;2023-01-29T01:25:21;0.30;99.90
14144;DHT22;7152;48.348;10.980;2023-01-29T01:27:47;0.40;99.90
14144;DHT22;7152;48.348;10.980;2023-01-29T01:30:14;0.40;99.90
14144;DHT22;7152;48.348;10.980;2023-01-29T01:32:41;0.40;99.90
14144;DHT22;7152;48.348;10.980;2023-01-29T01:35:08;0.40;99.90
14144;DHT22;7152;48.348;10.980;2023-01-29T01:37:34;0.40;99.90
14144;DHT22;7152;48.348;10.980;2023-01-29T01:40:05;0.40;99.90
14144;DHT22;7152;48.348;10.980;2023-01-29T01:42:39;0.40;99.90
14144;DHT22;7152;48.348;10.980;2023-01-29T01:45:07;0.50;99.90
14144;DHT22;7152;48.348;10.980;2023-01-29T01:48:09;0.50;99.90
14144;DHT22;7152;48.348;10.980;2023-01-29T01:53:15;0.50;99.90
14144;DHT22;7152;48.348;10.980;2023-01-29T01:55:47;0.50;99.90
14144;DHT22;7152;48.348;10.980;2023-01-29T01:58:22;0.50;99.90
14144;DHT22;7152;48.348;10.980;2023-01-29T02:00:49;0.60;99.90
14144;DHT22;7152;48.348;10.980;2023-01-29T02:03:16;0.60;99.90
14144;DHT22;7152;48.348;10.980;2023-01-29T02:06:02;0.60;99.90
14144;DHT22;7152;48.348;10.980;2023-01-29T02:09:39;0.70;99.90
14144;DHT22;7152;48.348;10.980;2023-01-29T02:12:06;0.70;99.90
14144;DHT22;7152;48.348;10.980;2023-01-29T02:14:33;0.70;99.90
14144;DHT22;7152;48.348;10.980;2023-01-29T02:17:03;0.70;99.90
14144;DHT22;7152;48.348;10.980;2023-01-29T02:25:11;0.70;99.90
14144;DHT22;7152;48.348;10.980;2023-01-29T02:32:57;0.60;99.90
14144;DHT22;7152;48.348;10.980;2023-01-29T02:35:34;0.60;99.90
14144;DHT22;7152;48.348;10.980;2023-01-29T02:40:41;0.60;99.90
14144;DHT22;7152;48.348;10.980;2023-01-29T02:43:28;0.60;99.90
14144;DHT22;7152;48.348;10.980;2023-01-29T02:46:06;0.60;99.90
14144;DHT22;7152;48.348;10.980;2023-01-29T02:48:57;0.60;99.90
14144;DHT22;7152;48.348;10.980;2023-01-29T02:54:00;0.40;99.90
14144;DHT22;7152;48.348;10.980;2023-01-29T02:56:38;0.50;99.90
14144;DHT22;7152;48.348;10.980;2023-01-29T02:59:15;0.50;99.90
14144;DHT22;7152;48.348;10.980;2023-01-29T03:01:52;0.50;99.90
14144;DHT22;7152;48.348;10.980;2023-01-29T03:04:29;0.50;99.90
14144;DHT22;7152;48.348;10.980;2023-01-29T03:07:02;0.50;99.90
14144;DHT22;7152;48.348;10.980;2023-01-29T03:09:35;0.50;99.90
14144;DHT22;7152;48.348;10.980;2023-01-29T03:12:18;0.50;99.90
14144;DHT22;7152;48.348;10.980;2023-01-29T03:15:03;0.50;99.90
14144;DHT22;7152;48.348;10.980;2023-01-29T03:17:51;0.50;99.90
14144;DHT22;7152;48.348;10.980;2023-01-29T03:20:22;0.50;99.90
14144;DHT22;7152;48.348;10.980;2023-01-29T03:22:55;0.50;99.90
14144;DHT22;7152;48.348;10.980;2023-01-29T03:25:23;0.50;99.90
14144;DHT22;7152;48.348;10.980;2023-01-29T03:28:12;0.50;99.90
14144;DHT22;7152;48.348;10.980;2023-01-29T03:31:05;0.50;99.90
14144;DHT22;7152;48.348;10.980;2023-01-29T03:34:12;0.50;99.90
14144;DHT22;7152;48.348;10.980;2023-01-29T03:36:57;0.50;99.90
14144;DHT22;7152;48.348;10.980;2023-01-29T03:39:26;0.40;99.90
14144;DHT22;7152;48.348;10.980;2023-01-29T03:42:04;0.50;99.90
14144;DHT22;7152;48.348;10.980;2023-01-29T03:47:41;0.50;99.90
14144;DHT22;7152;48.348;10.980;2023-01-29T03:50:31;0.50;99.90
14144;DHT22;7152;48.348;10.980;2023-01-29T03:53:05;0.60;99.90
14144;DHT22;7152;48.348;10.980;2023-01-29T03:58:22;0.60;99.90
14144;DHT22;7152;48.348;10.980;2023-01-29T04:01:28;0.60;99.90
14144;DHT22;7152;48.348;10.980;2023-01-29T04:06:32;0.50;99.90
14144;DHT22;7152;48.348;10.980;2023-01-29T04:09:30;0.50;99.90
14144;DHT22;7152;48.348;10.980;2023-01-29T04:12:08;0.50;99.90
14144;DHT22;7152;48.348;10.980;2023-01-29T04:14:35;0.40;99.90
14144;DHT22;7152;48.348;10.980;2023-01-29T04:17:17;0.50;99.90
14144;DHT22;7152;48.348;10.980;2023-01-29T04:19:44;0.50;99.90
14144;DHT22;7152;48.348;10.980;2023-01-29T04:22:17;0.50;99.90
14144;DHT22;7152;48.348;10.980;2023-01-29T04:24:43;0.50;99.90
14144;DHT22;7152;48.348;10.980;2023-01-29T04:27:25;0.60;99.90
14144;DHT22;7152;48.348;10.980;2023-01-29T04:38:14;0.30;99.90
14144;DHT22;7152;48.348;10.980;2023-01-29T04:41:15;0.30;99.90
14144;DHT22;7152;48.348;10.980;2023-01-29T04:43:54;0.30;99.90
14144;DHT22;7152;48.348;10.980;2023-01-29T04:46:47;0.30;99.90
14144;DHT22;7152;48.348;10.980;2023-01-29T05:00:26;0.10;99.90
14144;DHT22;7152;48.348;10.980;2023-01-29T05:02:52;0.10;99.90
14144;DHT22;7152;48.348;10.980;2023-01-29T05:05:18;0.00;99.90
14144;DHT22;7152;48.348;10.980;2023-01-29T05:07:45;0.10;99.90
14144;DHT22;7152;48.348;10.980;2023-01-29T05:10:13;0.10;99.90
14144;DHT22;7152;48.348;10.980;2023-01-29T05:12:40;0.00;99.90
14144;DHT22;7152;48.348;10.980;2023-01-29T05:15:11;0.00;99.90
14144;DHT22;7152;48.348;10.980;2023-01-29T05:17:38;-0.10;99.90
14144;DHT22;7152;48.348;10.980;2023-01-29T05:20:04;0.00;99.90
14144;DHT22;7152;48.348;10.980;2023-01-29T05:22:30;-0.10;99.90
14144;DHT22;7152;48.348;10.980;2023-01-29T05:24:56;0.00;99.90
14144;DHT22;7152;48.348;10.980;2023-01-29T05:27:28;0.00;99.90
14144;DHT22;7152;48.348;10.980;2023-01-29T05:30:14;0.00;99.90
14144;DHT22;7152;48.348;10.980;2023-01-29T05:32:40;0.10;99.90
14144;DHT22;7152;48.348;10.980;2023-01-29T05:35:06;0.10;99.90
14144;DHT22;7152;48.348;10.980;2023-01-29T05:37:32;0.20;99.90
14144;DHT22;7152;48.348;10.980;2023-01-29T05:39:57;0.20;99.90
14144;DHT22;7152;48.348;10.980;2023-01-29T05:42:23;0.20;99.90
14144;DHT22;7152;48.348;10.980;2023-01-29T05:44:49;0.20;99.90
14144;DHT22;7152;48.348;10.980;2023-01-29T05:47:18;0.20;99.90
14144;DHT22;7152;48.348;10.980;2023-01-29T05:49:44;0.30;99.90
14144;DHT22;7152;48.348;10.980;2023-01-29T05:52:10;0.30;99.90
14144;DHT22;7152;48.348;10.980;2023-01-29T05:54:35;0.40;99.90
14144;DHT22;7152;48.348;10.980;2023-01-29T05:57:01;0.40;99.90
14144;DHT22;7152;48.348;10.980;2023-01-29T05:59:26;0.40;99.90
14144;DHT22;7152;48.348;10.980;2023-01-29T06:01:55;0.50;99.90
14144;DHT22;7152;48.348;10.980;2023-01-29T06:04:21;0.50;99.90
14144;DHT22;7152;48.348;10.980;2023-01-29T06:06:47;0.50;99.90
14144;DHT22;7152;48.348;10.980;2023-01-29T06:09:12;0.60;99.90
14144;DHT22;7152;48.348;10.980;2023-01-29T06:11:38;0.50;99.90
14144;DHT22;7152;48.348;10.980;2023-01-29T06:14:04;0.50;99.90
14144;DHT22;7152;48.348;10.980;2023-01-29T06:16:30;0.40;99.90
14144;DHT22;7152;48.348;10.980;2023-01-29T06:18:55;0.50;99.90
14144;DHT22;7152;48.348;10.980;2023-01-29T06:21:21;0.50;99.90
14144;DHT22;7152;48.348;10.980;2023-01-29T06:23:46;0.50;99.90
14144;DHT22;7152;48.348;10.980;2023-01-29T06:26:13;0.50;99.90
14144;DHT22;7152;48.348;10.980;2023-01-29T06:28:40;0.60;99.90
14144;DHT22;7152;48.348;10.980;2023-01-29T06:31:06;0.50;99.90
14144;DHT22;7152;48.348;10.980;2023-01-29T06:33:33;0.50;99.90
14144;DHT22;7152;48.348;10.980;2023-01-29T06:36:00;0.50;99.90
14144;DHT22;7152;48.348;10.980;2023-01-29T06:38:26;0.50;99.90
14144;DHT22;7152;48.348;10.980;2023-01-29T06:40:52;0.50;99.90
14144;DHT22;7152;48.348;10.980;2023-01-29T06:43:19;0.50;99.90
14144;DHT22;7152;48.348;10.980;2023-01-29T06:45:51;0.50;99.90
14144;DHT22;7152;48.348;10.980;2023-01-29T06:48:17;0.50;99.90
14144;DHT22;7152;48.348;10.980;2023-01-29T06:50:43;0.50;99.90
14144;DHT22;7152;48.348;10.980;2023-01-29T06:53:09;0.50;99.90
14144;DHT22;7152;48.348;10.980;2023-01-29T06:55:34;0.50;99.90
14144;DHT22;7152;48.348;10.980;2023-01-29T06:58:05;0.50;99.90
14144;DHT22;7152;48.348;10.980;2023-01-29T07:00:31;0.50;99.90
14144;DHT22;7152;48.348;10.980;2023-01-29T07:02:56;0.40;99.90
14144;DHT22;7152;48.348;10.980;2023-01-29T07:05:22;0.40;99.90
14144;DHT22;7152;48.348;10.980;2023-01-29T07:07:47;0.40;99.90
14144;DHT22;7152;48.348;10.980;2023-01-29T07:10:13;0.40;99.90
14144;DHT22;7152;48.348;10.980;2023-01-29T07:12:39;0.40;99.90
14144;DHT22;7152;48.348;10.980;2023-01-29T07:15:05;0.50;99.90
14144;DHT22;7152;48.348;10.980;2023-01-29T07:17:30;0.50;99.90
14144;DHT22;7152;48.348;10.980;2023-01-29T07:19:56;0.50;99.90
14144;DHT22;7152;48.348;10.980;2023-01-29T07:22:22;0.50;99.90
14144;DHT22;7152;48.348;10.980;2023-01-29T07:24:47;0.50;99.90
14144;DHT22;7152;48.348;10.980;2023-01-29T07:27:13;0.60;99.90
14144;DHT22;7152;48.348;10.980;2023-01-29T07:29:38;0.60;99.90
14144;DHT22;7152;48.348;10.980;2023-01-29T07:32:04;0.70;99.90
14144;DHT22;7152;48.348;10.980;2023-01-29T07:34:30;0.70;99.90
14144;DHT22;7152;48.348;10.980;2023-01-29T07:36:55;0.70;99.90
14144;DHT22;7152;48.348;10.980;2023-01-29T07:39:21;0.70;99.90
14144;DHT22;7152;48.348;10.980;2023-01-29T07:41:47;0.70;99.90
14144;DHT22;7152;48.348;10.980;2023-01-29T07:44:13;0.70;99.90
14144;DHT22;7152;48.348;10.980;2023-01-29T07:46:38;0.70;99.90
14144;DHT22;7152;48.348;10.980;2023-01-29T07:49:04;0.70;99.90
14144;DHT22;7152;48.348;10.980;2023-01-29T07:51:30;0.70;99.90
14144;DHT22;7152;48.348;10.980;2023-01-29T07:53:55;0.80;99.90
14144;DHT22;7152;48.348;10.980;2023-01-29T07:56:21;0.80;99.90
14144;DHT22;7152;48.348;10.980;2023-01-29T07:58:46;0.90;99.90
14144;DHT22;7152;48.348;10.980;2023-01-29T08:01:12;0.90;99.90
14144;DHT22;7152;48.348;10.980;2023-01-29T08:03:38;0.90;99.90
14144;DHT22;7152;48.348;10.980;2023-01-29T08:06:04;0.90;99.90
14144;DHT22;7152;48.348;10.980;2023-01-29T08:08:29;0.90;99.90
14144;DHT22;7152;48.348;10.980;2023-01-29T08:10:55;0.90;99.90
14144;DHT22;7152;48.348;10.980;2023-01-29T08:13:21;0.90;99.90
14144;DHT22;7152;48.348;10.980;2023-01-29T08:15:46;0.90;99.90
14144;DHT22;7152;48.348;10.980;2023-01-29T08:18:13;0.90;99.90
14144;DHT22;7152;48.348;10.980;2023-01-29T08:20:39;1.00;99.90
14144;DHT22;7152;48.348;10.980;2023-01-29T08:23:06;1.00;99.90
14144;DHT22;7152;48.348;10.980;2023-01-29T08:25:33;1.00;99.90
14144;DHT22;7152;48.348;10.980;2023-01-29T08:27:59;0.90;99.90
14144;DHT22;7152;48.348;10.980;2023-01-29T08:30:27;0.80;99.90
14144;DHT22;7152;48.348;10.980;2023-01-29T08:32:53;0.80;99.90
14144;DHT22;7152;48.348;10.980;2023-01-29T08:35:19;0.80;99.90
14144;DHT22;7152;48.348;10.980;2023-01-29T08:37:52;0.90;99.90
14144;DHT22;7152;48.348;10.980;2023-01-29T08:40:18;0.80;99.90
14144;DHT22;7152;48.348;10.980;2023-01-29T08:42:44;0.80;99.90
14144;DHT22;7152;48.348;10.980;2023-01-29T08:45:10;0.70;99.90
14144;DHT22;7152;48.348;10.980;2023-01-29T08:47:35;0.70;99.90
14144;DHT22;7152;48.348;10.980;2023-01-29T08:50:01;0.80;99.90
14144;DHT22;7152;48.348;10.980;2023-01-29T08:52:26;0.80;99.90
14144;DHT22;7152;48.348;10.980;2023-01-29T08:54:52;0.70;99.90
14144;DHT22;7152;48.348;10.980;2023-01-29T08:57:18;0.70;99.90
14144;DHT22;7152;48.348;10.980;2023-01-29T08:59:43;0.70;99.90
14144;DHT22;7152;48.348;10.980;2023-01-29T09:02:10;0.70;99.90
14144;DHT22;7152;48.348;10.980;2023-01-29T09:04:36;0.70;99.90
14144;DHT22;7152;48.348;10.980;2023-01-29T09:07:02;0.70;99.90
14144;DHT22;7152;48.348;10.980;2023-01-29T09:09:27;0.70;99.90
14144;DHT22;7152;48.348;10.980;2023-01-29T09:11:53;0.70;99.90
14144;DHT22;7152;48.348;10.980;2023-01-29T09:14:18;0.70;99.90
14144;DHT22;7152;48.348;10.980;2023-01-29T09:16:44;0.70;99.90
14144;DHT22;7152;48.348;10.980;2023-01-29T09:19:10;0.80;99.90
14144;DHT22;7152;48.348;10.980;2023-01-29T09:21:35;0.90;99.90
14144;DHT22;7152;48.348;10.980;2023-01-29T09:24:01;1.00;99.90
14144;DHT22;7152;48.348;10.980;2023-01-29T09:26:26;1.00;99.90
14144;DHT22;7152;48.348;10.980;2023-01-29T09:28:52;1.10;99.90
14144;DHT22;7152;48.348;10.980;2023-01-29T09:31:17;1.00;99.90
14144;DHT22;7152;48.348;10.980;2023-01-29T09:33:43;1.00;99.90
14144;DHT22;7152;48.348;10.980;2023-01-29T09:36:09;1.00;99.90
14144;DHT22;7152;48.348;10.980;2023-01-29T09:38:34;1.00;99.90
14144;DHT22;7152;48.348;10.980;2023-01-29T09:43:55;0.90;99.90
14144;DHT22;7152;48.348;10.980;2023-01-29T09:46:46;0.90;99.90
14144;DHT22;7152;48.348;10.980;2023-01-29T09:49:26;1.00;99.90
14144;DHT22;7152;48.348;10.980;2023-01-29T09:54:53;1.10;99.90
14144;DHT22;7152;48.348;10.980;2023-01-29T09:57:38;1.20;99.90
14144;DHT22;7152;48.348;10.980;2023-01-29T10:00:13;1.20;99.90
14144;DHT22;7152;48.348;10.980;2023-01-29T10:14:10;1.20;99.90
14144;DHT22;7152;48.348;10.980;2023-01-29T10:16:57;1.20;99.90
14144;DHT22;7152;48.348;10.980;2023-01-29T10:19:55;1.20;99.90
14144;DHT22;7152;48.348;10.980;2023-01-29T10:25:10;1.10;99.90
14144;DHT22;7152;48.348;10.980;2023-01-29T10:27:39;1.10;99.90
14144;DHT22;7152;48.348;10.980;2023-01-29T10:30:16;1.20;99.90
14144;DHT22;7152;48.348;10.980;2023-01-29T10:32:44;1.20;99.90
14144;DHT22;7152;48.348;10.980;2023-01-29T10:35:35;1.30;99.90
14144;DHT22;7152;48.348;10.980;2023-01-29T10:52:09;1.60;99.90
14144;DHT22;7152;48.348;10.980;2023-01-29T11:00:36;1.80;99.90
14144;DHT22;7152;48.348;10.980;2023-01-29T11:03:25;1.80;99.90
14144;DHT22;7152;48.348;10.980;2023-01-29T11:08:49;2.00;99.90
14144;DHT22;7152;48.348;10.980;2023-01-29T11:11:14;2.10;99.90
14144;DHT22;7152;48.348;10.980;2023-01-29T11:13:49;2.10;99.90
14144;DHT22;7152;48.348;10.980;2023-01-29T11:16:17;2.10;99.90
14144;DHT22;7152;48.348;10.980;2023-01-29T11:21:14;2.20;99.90
14144;DHT22;7152;48.348;10.980;2023-01-29T11:23:40;2.30;99.90
14144;DHT22;7152;48.348;10.980;2023-01-29T11:26:08;2.40;99.90
14144;DHT22;7152;48.348;10.980;2023-01-29T11:28:41;2.50;99.90
14144;DHT22;7152;48.348;10.980;2023-01-29T11:31:34;2.50;99.90
14144;DHT22;7152;48.348;10.980;2023-01-29T11:34:12;2.60;99.90
14144;DHT22;7152;48.348;10.980;2023-01-29T11:36:38;2.70;99.90
14144;DHT22;7152;48.348;10.980;2023-01-29T11:39:25;2.60;99.90
14144;DHT22;7152;48.348;10.980;2023-01-29T11:42:01;2.60;99.90
14144;DHT22;7152;48.348;10.980;2023-01-29T11:44:32;2.60;99.90
14144;DHT22;7152;48.348;10.980;2023-01-29T11:47:10;2.60;99.90
14144;DHT22;7152;48.348;10.980;2023-01-29T11:49:37;2.60;99.90
14144;DHT22;7152;48.348;10.980;2023-01-29T11:52:07;2.50;99.90
14144;DHT22;7152;48.348;10.980;2023-01-29T11:55:19;2.50;99.90
14144;DHT22;7152;48.348;10.980;2023-01-29T12:00:22;2.50;99.90
14144;DHT22;7152;48.348;10.980;2023-01-29T12:02:53;2.50;99.90
14144;DHT22;7152;48.348;10.980;2023-01-29T12:05:21;2.40;99.90
14144;DHT22;7152;48.348;10.980;2023-01-29T12:07:49;2.40;99.90
14144;DHT22;7152;48.348;10.980;2023-01-29T12:10:37;2.30;99.90
14144;DHT22;7152;48.348;10.980;2023-01-29T12:15:35;2.30;99.90
14144;DHT22;7152;48.348;10.980;2023-01-29T12:20:51;2.30;99.90
14144;DHT22;7152;48.348;10.980;2023-01-29T12:26:24;2.30;99.90
14144;DHT22;7152;48.348;10.980;2023-01-29T12:29:11;2.30;99.90
14144;DHT22;7152;48.348;10.980;2023-01-29T12:37:18;2.20;99.90
14144;DHT22;7152;48.348;10.980;2023-01-29T12:39:45;2.10;99.90
14144;DHT22;7152;48.348;10.980;2023-01-29T12:42:16;2.10;99.90
14144;DHT22;7152;48.348;10.980;2023-01-29T12:47:34;2.20;99.90
14144;DHT22;7152;48.348;10.980;2023-01-29T12:50:07;2.20;99.90
14144;DHT22;7152;48.348;10.980;2023-01-29T12:52:45;2.20;99.90
14144;DHT22;7152;48.348;10.980;2023-01-29T12:55:20;2.20;99.90
14144;DHT22;7152;48.348;10.980;2023-01-29T12:57:57;2.30;99.90
14144;DHT22;7152;48.348;10.980;2023-01-29T13:00:26;2.30;99.90
14144;DHT22;7152;48.348;10.980;2023-01-29T13:03:07;2.30;99.90
14144;DHT22;7152;48.348;10.980;2023-01-29T13:05:56;2.30;99.90
14144;DHT22;7152;48.348;10.980;2023-01-29T13:08:41;2.40;99.90
14144;DHT22;7152;48.348;10.980;2023-01-29T13:11:18;2.40;99.90
14144;DHT22;7152;48.348;10.980;2023-01-29T13:13:50;2.40;99.90
14144;DHT22;7152;48.348;10.980;2023-01-29T13:16:20;2.40;99.90
14144;DHT22;7152;48.348;10.980;2023-01-29T13:19:01;2.40;99.90
14144;DHT22;7152;48.348;10.980;2023-01-29T13:21:35;2.40;99.90
14144;DHT22;7152;48.348;10.980;2023-01-29T13:24:04;2.30;99.90
14144;DHT22;7152;48.348;10.980;2023-01-29T13:26:33;2.40;99.90
14144;DHT22;7152;48.348;10.980;2023-01-29T13:28:59;2.30;99.90
14144;DHT22;7152;48.348;10.980;2023-01-29T13:31:32;2.20;99.90
14144;DHT22;7152;48.348;10.980;2023-01-29T13:36:44;2.20;99.90
14144;DHT22;7152;48.348;10.980;2023-01-29T13:39:26;2.20;99.90
14144;DHT22;7152;48.348;10.980;2023-01-29T13:41:54;2.20;99.90
14144;DHT22;7152;48.348;10.980;2023-01-29T13:44:27;2.20;99.90
14144;DHT22;7152;48.348;10.980;2023-01-29T13:46:56;2.20;99.90
14144;DHT22;7152;48.348;10.980;2023-01-29T13:49:46;2.10;99.90
14144;DHT22;7152;48.348;10.980;2023-01-29T13:52:30;2.10;99.90
14144;DHT22;7152;48.348;10.980;2023-01-29T14:10:32;2.10;99.90
14144;DHT22;7152;48.348;10.980;2023-01-29T14:18:35;1.90;99.90
14144;DHT22;7152;48.348;10.980;2023-01-29T14:21:04;1.80;99.90
14144;DHT22;7152;48.348;10.980;2023-01-29T14:23:46;1.70;99.90
14144;DHT22;7152;48.348;10.980;2023-01-29T14:26:32;1.70;99.90
14144;DHT22;7152;48.348;10.980;2023-01-29T14:29:15;1.80;99.90
14144;DHT22;7152;48.348;10.980;2023-01-29T14:31:47;1.70;99.90
14144;DHT22;7152;48.348;10.980;2023-01-29T14:34:18;1.70;99.90
14144;DHT22;7152;48.348;10.980;2023-01-29T14:36:46;1.70;99.90
14144;DHT22;7152;48.348;10.980;2023-01-29T14:39:27;1.70;99.90
14144;DHT22;7152;48.348;10.980;2023-01-29T14:41:53;1.70;99.90
14144;DHT22;7152;48.348;10.980;2023-01-29T14:55:56;1.50;99.90
14144;DHT22;7152;48.348;10.980;2023-01-29T14:58:48;1.50;99.90
14144;DHT22;7152;48.348;10.980;2023-01-29T15:01:46;1.40;99.90
14144;DHT22;7152;48.348;10.980;2023-01-29T15:04:28;1.40;99.90
14144;DHT22;7152;48.348;10.980;2023-01-29T15:07:02;1.40;99.90
14144;DHT22;7152;48.348;10.980;2023-01-29T15:09:51;1.40;99.90
14144;DHT22;7152;48.348;10.980;2023-01-29T15:12:29;1.30;99.90
14144;DHT22;7152;48.348;10.980;2023-01-29T15:15:24;1.40;99.90
14144;DHT22;7152;48.348;10.980;2023-01-29T15:18:14;1.30;99.90
14144;DHT22;7152;48.348;10.980;2023-01-29T15:20:42;1.30;99.90
14144;DHT22;7152;48.348;10.980;2023-01-29T15:23:27;1.30;99.90
14144;DHT22;7152;48.348;10.980;2023-01-29T15:25:56;1.30;99.90
14144;DHT22;7152;48.348;10.980;2023-01-29T15:28:23;1.30;99.90
14144;DHT22;7152;48.348;10.980;2023-01-29T15:30:54;1.30;99.90
14144;DHT22;7152;48.348;10.980;2023-01-29T15:33:20;1.30;99.90
14144;DHT22;7152;48.348;10.980;2023-01-29T15:35:46;1.40;99.90
14144;DHT22;7152;48.348;10.980;2023-01-29T15:40:49;1.30;99.90
14144;DHT22;7152;48.348;10.980;2023-01-29T15:43:45;1.20;99.90
14144;DHT22;7152;48.348;10.980;2023-01-29T15:46:29;1.20;99.90
14144;DHT22;7152;48.348;10.980;2023-01-29T15:49:00;1.20;99.90
14144;DHT22;7152;48.348;10.980;2023-01-29T15:51:27;1.20;99.90
14144;DHT22;7152;48.348;10.980;2023-01-29T15:54:01;1.10;99.90
14144;DHT22;7152;48.348;10.980;2023-01-29T15:56:34;1.10;99.90
14144;DHT22;7152;48.348;10.980;2023-01-29T15:59:03;1.10;99.90
14144;DHT22;7152;48.348;10.980;2023-01-29T16:01:30;1.10;99.90
14144;DHT22;7152;48.348;10.980;2023-01-29T16:03:58;1.00;99.90
14144;DHT22;7152;48.348;10.980;2023-01-29T16:06:34;1.00;99.90
14144;DHT22;7152;48.348;10.980;2023-01-29T16:09:01;1.00;99.90
14144;DHT22;7152;48.348;10.980;2023-01-29T16:11:28;1.00;99.90
14144;DHT22;7152;48.348;10.980;2023-01-29T16:13:54;1.00;99.90
14144;DHT22;7152;48.348;10.980;2023-01-29T16:16:24;1.00;99.90
14144;DHT22;7152;48.348;10.980;2023-01-29T16:18:50;1.00;99.90
14144;DHT22;7152;48.348;10.980;2023-01-29T16:23:50;0.90;99.90
14144;DHT22;7152;48.348;10.980;2023-01-29T16:26:27;0.80;99.90
14144;DHT22;7152;48.348;10.980;2023-01-29T16:28:56;0.80;99.90
14144;DHT22;7152;48.348;10.980;2023-01-29T16:31:28;0.80;99.90
14144;DHT22;7152;48.348;10.980;2023-01-29T16:33:56;0.70;99.90
14144;DHT22;7152;48.348;10.980;2023-01-29T16:36:25;0.70;99.90
14144;DHT22;7152;48.348;10.980;2023-01-29T16:38:59;0.70;99.90
14144;DHT22;7152;48.348;10.980;2023-01-29T16:41:29;0.70;99.90
14144;DHT22;7152;48.348;10.980;2023-01-29T16:46:37;0.80;99.90
14144;DHT22;7152;48.348;10.980;2023-01-29T16:51:50;0.80;99.90
14144;DHT22;7152;48.348;10.980;2023-01-29T16:54:20;0.80;99.90
14144;DHT22;7152;48.348;10.980;2023-01-29T16:56:49;0.80;99.90
14144;DHT22;7152;48.348;10.980;2023-01-29T16:59:28;0.80;99.90
14144;DHT22;7152;48.348;10.980;2023-01-29T17:01:56;0.80;99.90
14144;DHT22;7152;48.348;10.980;2023-01-29T17:04:21;0.70;99.90
14144;DHT22;7152;48.348;10.980;2023-01-29T17:06:52;0.70;99.90
14144;DHT22;7152;48.348;10.980;2023-01-29T17:09:33;0.70;99.90
14144;DHT22;7152;48.348;10.980;2023-01-29T17:12:05;0.70;99.90
14144;DHT22;7152;48.348;10.980;2023-01-29T17:14:32;0.70;99.90
14144;DHT22;7152;48.348;10.980;2023-01-29T17:17:11;0.70;99.90
14144;DHT22;7152;48.348;10.980;2023-01-29T17:19:38;0.70;99.90
14144;DHT22;7152;48.348;10.980;2023-01-29T17:22:04;0.60;99.90
14144;DHT22;7152;48.348;10.980;2023-01-29T17:24:33;0.70;99.90
14144;DHT22;7152;48.348;10.980;2023-01-29T17:27:00;0.70;99.90
14144;DHT22;7152;48.348;10.980;2023-01-29T17:29:29;0.60;99.90
14144;DHT22;7152;48.348;10.980;2023-01-29T17:31:54;0.60;99.90
14144;DHT22;7152;48.348;10.980;2023-01-29T17:34:20;0.70;99.90
14144;DHT22;7152;48.348;10.980;2023-01-29T17:36:46;0.70;99.90
14144;DHT22;7152;48.348;10.980;2023-01-29T17:39:22;0.70;99.90
14144;DHT22;7152;48.348;10.980;2023-01-29T17:41:53;0.70;99.90
14144;DHT22;7152;48.348;10.980;2023-01-29T17:44:20;0.60;99.90
14144;DHT22;7152;48.348;10.980;2023-01-29T17:46:46;0.60;99.90
14144;DHT22;7152;48.348;10.980;2023-01-29T17:49:27;0.60;99.90
14144;DHT22;7152;48.348;10.980;2023-01-29T17:51:54;0.60;99.90
14144;DHT22;7152;48.348;10.980;2023-01-29T17:54:20;0.60;99.90
14144;DHT22;7152;48.348;10.980;2023-01-29T17:56:47;0.60;99.90
14144;DHT22;7152;48.348;10.980;2023-01-29T17:59:18;0.60;99.90
14144;DHT22;7152;48.348;10.980;2023-01-29T18:01:44;0.60;99.90
14144;DHT22;7152;48.348;10.980;2023-01-29T18:04:11;0.50;99.90
14144;DHT22;7152;48.348;10.980;2023-01-29T18:06:38;0.50;99.90
14144;DHT22;7152;48.348;10.980;2023-01-29T18:09:04;0.60;99.90
14144;DHT22;7152;48.348;10.980;2023-01-29T18:11:30;0.50;99.90
14144;DHT22;7152;48.348;10.980;2023-01-29T18:13:56;0.50;99.90
14144;DHT22;7152;48.348;10.980;2023-01-29T18:16:23;0.50;99.90
14144;DHT22;7152;48.348;10.980;2023-01-29T18:18:50;0.50;99.90
14144;DHT22;7152;48.348;10.980;2023-01-29T18:21:16;0.50;99.90
14144;DHT22;7152;48.348;10.980;2023-01-29T18:23:42;0.50;99.90
14144;DHT22;7152;48.348;10.980;2023-01-29T18:26:11;0.50;99.90
14144;DHT22;7152;48.348;10.980;2023-01-29T18:28:37;0.50;99.90
14144;DHT22;7152;48.348;10.980;2023-01-29T18:31:04;0.50;99.90
14144;DHT22;7152;48.348;10.980;2023-01-29T18:33:29;0.50;99.90
14144;DHT22;7152;48.348;10.980;2023-01-29T18:35:56;0.50;99.90
14144;DHT22;7152;48.348;10.980;2023-01-29T18:38:23;0.40;99.90
14144;DHT22;7152;48.348;10.980;2023-01-29T18:40:48;0.20;99.90
14144;DHT22;7152;48.348;10.980;2023-01-29T18:43:14;0.40;99.90
14144;DHT22;7152;48.348;10.980;2023-01-29T18:45:40;0.40;99.90
14144;DHT22;7152;48.348;10.980;2023-01-29T18:48:06;0.30;99.90